PWSweather.com
Personal Weather Stations
Station Observations
IROGLAN40
AalgaardNO 4330

AalgaardNO 4330

Lat: 58.773, Lon: 5.846

Elevation: 326

Station Type: Davis Vanatge Pro2

Latest ConditionsUpdated 6:10:02 AM GMT+01:01 Tuesday, Aug 4, 2015
Currently Today's Max Today's Min Today's Average
Temperature 63.1°F17.3°C 65.2°F18.4°C 62.4°F16.9°C 63.8°F17.7°C
Dew Point 54.3°F12.4°C 54.3°F12.4°C 52.6°F11.4°C 53.3°F11.8°C
Winds 9.3 mph SE15.0 kmh SE 13.5 mph E21.7 kmh E - 7.7 mph 12.4 kmh
Wind Gusts 16.0 mph25.7 kmh 20.0 mph32.2 kmh - -
Humidity 73% 74% 64% 69%
Pressure 29.77 in1008.1 mb 29.82 in1009.8 mb 29.77 in1008.1 mb -
Hour Temp Dew Point Humidity Winds Wind Gusts Pressure Precip Precip Rate Daily Precip Total
06:10 AM 63.1°F17.3°C 54.3°F12.4°C 73% 9.3 mph SE15.0 kmh SE 16.0 mph25.7 kmh 29.77 in1008.1 mb - 0.00 in0.0 mm 0.00 in0.0 mm
06:00 AM 63.0°F17.2°C 54.2°F12.3°C 73% 4.9 mph SE7.9 kmh SE 10.0 mph16.1 kmh 29.77 in1008.1 mb - 0.00 in0.0 mm 0.00 in0.0 mm
05:50 AM 62.9°F17.2°C 54.1°F12.3°C 73% 8.2 mph SSE13.2 kmh SSE 10.0 mph16.1 kmh 29.77 in1008.1 mb - 0.00 in0.0 mm 0.00 in0.0 mm
05:40 AM 62.9°F17.2°C 54.1°F12.3°C 73% 8.1 mph S13.0 kmh S 13.0 mph20.9 kmh 29.77 in1008.1 mb - 0.00 in0.0 mm 0.00 in0.0 mm
05:30 AM 62.5°F16.9°C 54.1°F12.3°C 74% 7.1 mph SE11.4 kmh SE 9.0 mph14.5 kmh 29.77 in1008.1 mb - 0.00 in0.0 mm 0.00 in0.0 mm
05:20 AM 62.4°F16.9°C 53.6°F12.0°C 73% 7.4 mph SE11.9 kmh SE 12.0 mph19.3 kmh 29.77 in1008.1 mb - 0.00 in0.0 mm 0.00 in0.0 mm
05:10 AM 62.5°F16.9°C 53.3°F11.8°C 72% 7.7 mph SE12.4 kmh SE 11.0 mph17.7 kmh 29.77 in1008.1 mb - 0.00 in0.0 mm 0.00 in0.0 mm
05:00 AM 62.6°F17.0°C 53.4°F11.9°C 72% 5.0 mph SSE8.0 kmh SSE 10.0 mph16.1 kmh 29.78 in1008.5 mb - 0.00 in0.0 mm 0.00 in0.0 mm
04:50 AM 62.7°F17.1°C 53.5°F11.9°C 72% 6.4 mph SE10.3 kmh SE 8.0 mph12.9 kmh 29.78 in1008.5 mb - 0.00 in0.0 mm 0.00 in0.0 mm
04:40 AM 63.0°F17.2°C 53.4°F11.9°C 71% 5.9 mph ESE9.5 kmh ESE 13.0 mph20.9 kmh 29.78 in1008.5 mb - 0.00 in0.0 mm 0.00 in0.0 mm
04:30 AM 63.2°F17.3°C 53.7°F12.1°C 71% 10.6 mph SE17.1 kmh SE 15.0 mph24.1 kmh 29.79 in1008.8 mb - 0.00 in0.0 mm 0.00 in0.0 mm
04:20 AM 63.5°F17.5°C 53.9°F12.2°C 71% 7.2 mph SSE11.6 kmh SSE 11.0 mph17.7 kmh 29.79 in1008.8 mb - 0.00 in0.0 mm 0.00 in0.0 mm
04:10 AM 63.4°F17.4°C 53.8°F12.1°C 71% 6.7 mph SE10.8 kmh SE 13.0 mph20.9 kmh 29.79 in1008.8 mb - 0.00 in0.0 mm 0.00 in0.0 mm
04:00 AM 63.4°F17.4°C 53.4°F11.9°C 70% 7.0 mph SE11.3 kmh SE 11.0 mph17.7 kmh 29.80 in1009.1 mb - 0.00 in0.0 mm 0.00 in0.0 mm
03:50 AM 63.4°F17.4°C 53.4°F11.9°C 70% 5.8 mph SE9.3 kmh SE 12.0 mph19.3 kmh 29.80 in1009.1 mb - 0.00 in0.0 mm 0.00 in0.0 mm
03:40 AM 63.6°F17.6°C 53.2°F11.8°C 69% 6.7 mph SE10.8 kmh SE 10.0 mph16.1 kmh 29.80 in1009.1 mb - 0.00 in0.0 mm 0.00 in0.0 mm
03:30 AM 63.6°F17.6°C 53.2°F11.8°C 69% 7.0 mph S11.3 kmh S 8.0 mph12.9 kmh 29.80 in1009.1 mb - 0.00 in0.0 mm 0.00 in0.0 mm
03:20 AM 63.6°F17.6°C 52.8°F11.6°C 68% 6.4 mph SE10.3 kmh SE 9.0 mph14.5 kmh 29.80 in1009.1 mb - 0.00 in0.0 mm 0.00 in0.0 mm
03:10 AM 63.5°F17.5°C 53.1°F11.7°C 69% 6.1 mph SE9.8 kmh SE 10.0 mph16.1 kmh 29.79 in1008.8 mb - 0.00 in0.0 mm 0.00 in0.0 mm
03:00 AM 63.8°F17.7°C 53.0°F11.7°C 68% 6.1 mph SE9.8 kmh SE 10.0 mph16.1 kmh 29.79 in1008.8 mb - 0.00 in0.0 mm 0.00 in0.0 mm
02:50 AM 64.0°F17.8°C 53.2°F11.8°C 68% 6.6 mph SE10.6 kmh SE 11.0 mph17.7 kmh 29.78 in1008.5 mb - 0.00 in0.0 mm 0.00 in0.0 mm
02:40 AM 63.9°F17.7°C 53.1°F11.7°C 68% 13.5 mph E21.7 kmh E 19.0 mph30.6 kmh 29.79 in1008.8 mb - 0.00 in0.0 mm 0.00 in0.0 mm
02:30 AM 64.0°F17.8°C 52.8°F11.6°C 67% 6.5 mph SE10.5 kmh SE 11.0 mph17.7 kmh 29.79 in1008.8 mb - 0.00 in0.0 mm 0.00 in0.0 mm
02:20 AM 64.0°F17.8°C 52.8°F11.6°C 67% 8.4 mph ESE13.5 kmh ESE 12.0 mph19.3 kmh 29.79 in1008.8 mb - 0.00 in0.0 mm 0.00 in0.0 mm
02:10 AM 64.0°F17.8°C 52.8°F11.6°C 67% 8.7 mph SE14.0 kmh SE 15.0 mph24.1 kmh 29.80 in1009.1 mb - 0.00 in0.0 mm 0.00 in0.0 mm
02:00 AM 64.2°F17.9°C 52.6°F11.4°C 66% 7.5 mph ESE12.1 kmh ESE 12.0 mph19.3 kmh 29.80 in1009.1 mb - 0.00 in0.0 mm 0.00 in0.0 mm
01:50 AM 64.4°F18.0°C 52.8°F11.6°C 66% 8.8 mph ESE14.2 kmh ESE 17.0 mph27.4 kmh 29.80 in1009.1 mb - 0.00 in0.0 mm 0.00 in0.0 mm
01:40 AM 64.4°F18.0°C 52.8°F11.6°C 66% 8.6 mph SE13.8 kmh SE 17.0 mph27.4 kmh 29.80 in1009.1 mb - 0.00 in0.0 mm 0.00 in0.0 mm
01:30 AM 64.6°F18.1°C 53.0°F11.7°C 66% 6.8 mph SE10.9 kmh SE 13.0 mph20.9 kmh 29.80 in1009.1 mb - 0.00 in0.0 mm 0.00 in0.0 mm
01:20 AM 64.8°F18.2°C 52.8°F11.6°C 65% 9.7 mph E15.6 kmh E 17.0 mph27.4 kmh 29.80 in1009.1 mb - 0.00 in0.0 mm 0.00 in0.0 mm
01:10 AM 64.9°F18.3°C 52.9°F11.6°C 65% 7.5 mph E12.1 kmh E 17.0 mph27.4 kmh 29.80 in1009.1 mb - 0.00 in0.0 mm 0.00 in0.0 mm
01:00 AM 65.2°F18.4°C 52.8°F11.6°C 64% 11.0 mph SE17.7 kmh SE 14.0 mph22.5 kmh 29.80 in1009.1 mb - 0.00 in0.0 mm 0.00 in0.0 mm
12:50 AM 65.2°F18.4°C 53.1°F11.7°C 65% 8.7 mph SE14.0 kmh SE 15.0 mph24.1 kmh 29.80 in1009.1 mb - 0.00 in0.0 mm 0.00 in0.0 mm
12:40 AM 65.2°F18.4°C 53.1°F11.7°C 65% 7.0 mph SE11.3 kmh SE 11.0 mph17.7 kmh 29.80 in1009.1 mb - 0.00 in0.0 mm 0.00 in0.0 mm
12:30 AM 65.2°F18.4°C 53.1°F11.7°C 65% 8.8 mph ESE14.2 kmh ESE 18.0 mph29.0 kmh 29.80 in1009.1 mb - 0.00 in0.0 mm 0.00 in0.0 mm
12:20 AM 65.2°F18.4°C 53.1°F11.7°C 65% 9.3 mph ESE15.0 kmh ESE 20.0 mph32.2 kmh 29.81 in1009.5 mb - 0.00 in0.0 mm 0.00 in0.0 mm
12:10 AM 65.2°F18.4°C 53.1°F11.7°C 65% 9.4 mph ESE15.1 kmh ESE 18.0 mph29.0 kmh 29.82 in1009.8 mb - 0.00 in0.0 mm 0.00 in0.0 mm
12:00 AM 65.2°F18.4°C 53.2°F11.8°C 65% 6.4 mph SE10.3 kmh SE 9.0 mph14.5 kmh 29.82 in1009.8 mb - 0.00 in0.0 mm 0.00 in0.0 mm